Time;durP1;ratioP1;P1;durP2;ratioP2;P2;SDS_P1;SDS_P2;PMS_P1;PMS_P2;Temp;Humidity;BMP_temperature;BMP_pressure;BME280_temperature;BME280_humidity;BME280_pressure;Samples;Min_cycle;Max_cycle;Signal;HPM_P1;HPM_P2
2022/12/21 00:02:40;;;;;;;69.60;22.98;;;;;;;;;;6250051;28;20044;-55
2022/12/21 00:05:40;;;;;;;75.03;24.55;;;;;;;;;;6245371;28;20455;-55
2022/12/21 00:08:45;;;;;;;69.13;22.77;;;;;;;;;;6248898;28;20136;-54
2022/12/21 00:11:46;;;;;;;72.55;23.15;;;;;;;;;;6249799;28;20148;-58
2022/12/21 00:14:46;;;;;;;72.38;23.23;;;;;;;;;;6246630;28;20068;-67
2022/12/21 00:17:47;;;;;;;75.55;25.58;;;;;;;;;;6244237;28;20053;-55
2022/12/21 00:21:02;;;;;;;71.47;23.58;;;;;;;;;;6247227;28;20049;-56
2022/12/21 00:24:03;;;;;;;67.88;21.92;;;;;;;;;;6248119;28;20037;-58
2022/12/21 00:27:04;;;;;;;74.90;23.40;;;;;;;;;;6248531;28;20041;-60
2022/12/21 00:30:05;;;;;;;75.63;24.48;;;;;;;;;;6247634;28;20060;-58
2022/12/21 00:33:06;;;;;;;69.87;23.10;;;;;;;;;;6263586;28;20049;-56
2022/12/21 00:36:10;;;;;;;68.15;22.20;;;;;;;;;;6253815;28;20484;-59
2022/12/21 00:39:12;;;;;;;61.00;20.90;;;;;;;;;;6250168;28;20056;-59
2022/12/21 00:42:14;;;;;;;60.67;20.50;;;;;;;;;;6249095;28;20102;-57
2022/12/21 00:45:15;;;;;;;68.40;21.65;;;;;;;;;;6248810;28;20504;-53
2022/12/21 00:48:15;;;;;;;59.97;21.73;;;;;;;;;;6246887;28;20049;-57
2022/12/21 00:51:18;;;;;;;60.33;19.95;;;;;;;;;;6202637;28;1172147;-57
2022/12/21 00:54:19;;;;;;;66.45;20.42;;;;;;;;;;6248167;28;20049;-57
2022/12/21 00:57:20;;;;;;;60.63;20.38;;;;;;;;;;6246521;28;20052;-57
2022/12/21 01:00:21;;;;;;;65.22;20.33;;;;;;;;;;6247176;28;20042;-60
2022/12/21 01:03:22;;;;;;;61.25;20.15;;;;;;;;;;6247603;28;20076;-56
2022/12/21 01:06:29;;;;;;;63.33;20.10;;;;;;;;;;6248176;28;20045;-58
2022/12/21 01:09:30;;;;;;;59.28;19.73;;;;;;;;;;6249805;28;20049;-57
2022/12/21 01:12:30;;;;;;;66.47;21.95;;;;;;;;;;6250973;28;20052;-57
2022/12/21 01:15:31;;;;;;;69.68;21.70;;;;;;;;;;6257782;28;20509;-52
2022/12/21 01:18:32;;;;;;;63.65;20.63;;;;;;;;;;6257252;28;20055;-56
2022/12/21 01:21:33;;;;;;;62.90;19.90;;;;;;;;;;6248923;28;20046;-58
2022/12/21 01:24:33;;;;;;;60.90;19.40;;;;;;;;;;6260251;28;20049;-58
2022/12/21 01:27:34;;;;;;;56.83;19.92;;;;;;;;;;6259613;28;20497;-59
2022/12/21 01:30:35;;;;;;;56.70;19.50;;;;;;;;;;6254040;28;20045;-62
2022/12/21 01:33:36;;;;;;;61.78;20.70;;;;;;;;;;6268037;28;20049;-57
2022/12/21 01:36:37;;;;;;;60.08;18.58;;;;;;;;;;6246634;28;20045;-58
2022/12/21 01:39:38;;;;;;;56.90;18.38;;;;;;;;;;6247227;28;20045;-57
2022/12/21 01:42:38;;;;;;;57.60;19.55;;;;;;;;;;6247498;28;20045;-56
2022/12/21 01:45:39;;;;;;;68.70;21.25;;;;;;;;;;6244850;28;20040;-56
2022/12/21 01:48:44;;;;;;;60.95;19.73;;;;;;;;;;6245484;28;20049;-58
2022/12/21 01:52:16;;;;;;;60.80;20.35;;;;;;;;;;6248416;28;20465;-56
2022/12/21 01:55:17;;;;;;;60.55;19.20;;;;;;;;;;6227748;28;20607;-57
2022/12/21 01:58:19;;;;;;;57.88;19.77;;;;;;;;;;6246645;28;20050;-57
2022/12/21 02:01:20;;;;;;;;;;;;;;;;;;6246771;28;20049;-54
2022/12/21 02:04:21;;;;;;;57.67;19.25;;;;;;;;;;6245919;28;19920;-66
2022/12/21 02:07:22;;;;;;;61.30;20.25;;;;;;;;;;6243559;28;20132;-57
2022/12/21 02:10:23;;;;;;;61.95;21.98;;;;;;;;;;6248421;28;20045;-56
2022/12/21 02:13:23;;;;;;;57.22;19.52;;;;;;;;;;6246912;28;20103;-55
2022/12/21 02:16:41;;;;;;;62.85;19.95;;;;;;;;;;6245922;28;20042;-57
2022/12/21 02:20:12;;;;;;;55.20;20.88;;;;;;;;;;6247869;28;20466;-56
2022/12/21 02:23:19;;;;;;;70.18;21.55;;;;;;;;;;6255528;28;20052;-58
2022/12/21 02:26:45;;;;;;;65.47;21.08;;;;;;;;;;6247493;28;20053;-66
2022/12/21 02:30:06;;;;;;;63.17;21.27;;;;;;;;;;6247217;28;20069;-59
2022/12/21 02:33:12;;;;;;;64.07;21.27;;;;;;;;;;6244584;28;20136;-59
2022/12/21 02:36:19;;;;;;;68.40;21.90;;;;;;;;;;6247597;28;20041;-55
2022/12/21 02:39:45;;;;;;;59.60;21.60;;;;;;;;;;6266270;28;20049;-57
2022/12/21 02:46:27;;;;;;;62.90;21.35;;;;;;;;;;6246870;28;20045;-58
2022/12/21 02:49:36;;;;;;;65.93;20.67;;;;;;;;;;6244835;28;20777;-57
2022/12/21 02:52:57;;;;;;;73.13;22.40;;;;;;;;;;6246125;28;20056;-59
2022/12/21 02:55:58;;;;;;;64.50;21.23;;;;;;;;;;6250982;28;20060;-58
2022/12/21 02:58:59;;;;;;;69.43;21.55;;;;;;;;;;6246219;28;20045;-57
2022/12/21 03:02:32;;;;;;;68.82;22.60;;;;;;;;;;6247155;28;20745;-58
2022/12/21 03:05:38;;;;;;;;;;;;;;;;;;6246887;28;20068;-56
2022/12/21 03:08:38;;;;;;;63.15;19.58;;;;;;;;;;6248775;28;19924;-55
2022/12/21 03:11:50;;;;;;;62.95;20.67;;;;;;;;;;6243728;28;20455;-58
2022/12/21 03:14:59;;;;;;;60.63;18.67;;;;;;;;;;6247502;28;20053;-58
2022/12/21 03:18:25;;;;;;;57.75;20.30;;;;;;;;;;6245397;28;20048;-57
2022/12/21 03:21:34;;;;;;;64.53;21.33;;;;;;;;;;6246847;28;20046;-54
2022/12/21 03:24:44;;;;;;;56.90;19.75;;;;;;;;;;6248265;28;20038;-57
2022/12/21 03:27:50;;;;;;;62.47;19.35;;;;;;;;;;6246227;28;20045;-55
2022/12/21 03:30:55;;;;;;;58.72;18.52;;;;;;;;;;6257273;28;20045;-58
2022/12/21 03:34:03;;;;;;;58.53;19.73;;;;;;;;;;6243508;28;20050;-58
2022/12/21 03:37:13;;;;;;;58.65;17.85;;;;;;;;;;6245998;28;20046;-58
2022/12/21 03:40:20;;;;;;;63.33;19.45;;;;;;;;;;6249029;28;20038;-60
2022/12/21 03:43:34;;;;;;;65.95;21.10;;;;;;;;;;6269639;28;20052;-57
2022/12/21 03:46:43;;;;;;;59.50;20.25;;;;;;;;;;6250291;28;20053;-59
2022/12/21 03:49:50;;;;;;;62.95;20.20;;;;;;;;;;6250966;28;20097;-57
2022/12/21 03:53:01;;;;;;;61.67;19.08;;;;;;;;;;6250141;28;20037;-61
2022/12/21 03:56:06;;;;;;;53.30;17.73;;;;;;;;;;6249056;28;20064;-58
2022/12/21 03:59:11;;;;;;;59.63;19.05;;;;;;;;;;6249858;28;20039;-56
2022/12/21 04:02:24;;;;;;;52.28;18.00;;;;;;;;;;6249674;28;20049;-57
2022/12/21 04:05:30;;;;;;;59.85;19.33;;;;;;;;;;6250592;28;20064;-57
2022/12/21 04:08:32;;;;;;;54.85;19.02;;;;;;;;;;6251224;28;20041;-60
2022/12/21 04:14:55;;;;;;;58.95;18.55;;;;;;;;;;6270155;28;20041;-53
2022/12/21 04:17:56;;;;;;;50.83;17.00;;;;;;;;;;6254958;28;20052;-53
2022/12/21 04:20:56;;;;;;;56.03;17.42;;;;;;;;;;6251470;28;20048;-56
2022/12/21 04:30:42;;;;;;;54.22;17.27;;;;;;;;;;6259492;28;20045;-58
2022/12/21 04:33:43;;;;;;;54.17;17.25;;;;;;;;;;6259875;28;20488;-60
2022/12/21 04:40:03;;;;;;;56.00;16.98;;;;;;;;;;6250950;28;20045;-57
2022/12/21 04:43:04;;;;;;;55.38;16.90;;;;;;;;;;6247454;28;20059;-56
2022/12/21 04:46:13;;;;;;;50.03;17.02;;;;;;;;;;6264578;28;20436;-55
2022/12/21 04:49:14;;;;;;;55.78;16.73;;;;;;;;;;6257898;28;20049;-56
2022/12/21 04:52:14;;;;;;;55.72;17.48;;;;;;;;;;6250276;28;20054;-57
2022/12/21 04:55:15;;;;;;;48.85;15.85;;;;;;;;;;6248429;28;20055;-57
2022/12/21 04:58:15;;;;;;;48.80;16.75;;;;;;;;;;6247240;28;20396;-57
2022/12/21 05:01:19;;;;;;;57.60;17.58;;;;;;;;;;6250741;28;20049;-56
2022/12/21 05:04:19;;;;;;;55.42;18.42;;;;;;;;;;6245503;28;20053;-57
2022/12/21 05:07:20;;;;;;;52.92;17.75;;;;;;;;;;6248713;28;20500;-56
2022/12/21 05:10:21;;;;;;;60.08;17.25;;;;;;;;;;6248089;28;20045;-61
2022/12/21 05:13:21;;;;;;;51.00;18.60;;;;;;;;;;6249395;28;20050;-56
2022/12/21 05:16:23;;;;;;;54.28;17.90;;;;;;;;;;6244896;28;20061;-57
2022/12/21 05:19:24;;;;;;;51.72;16.80;;;;;;;;;;6255153;28;20047;-58
2022/12/21 05:22:24;;;;;;;55.30;17.60;;;;;;;;;;6247004;28;20051;-57
2022/12/21 05:25:25;;;;;;;54.97;18.35;;;;;;;;;;6248807;28;20040;-56
2022/12/21 05:28:26;;;;;;;53.50;17.90;;;;;;;;;;6248005;28;20081;-56
2022/12/21 05:31:26;;;;;;;58.40;17.75;;;;;;;;;;6250051;28;20072;-56
2022/12/21 05:34:27;;;;;;;49.25;16.60;;;;;;;;;;6245093;28;20115;-53
2022/12/21 05:37:27;;;;;;;52.10;17.23;;;;;;;;;;6258577;28;20037;-56
2022/12/21 05:40:28;;;;;;;62.38;18.02;;;;;;;;;;6262998;28;20496;-59
2022/12/21 05:43:29;;;;;;;55.08;18.05;;;;;;;;;;6263073;28;20492;-57
2022/12/21 05:46:30;;;;;;;55.20;18.85;;;;;;;;;;6264149;28;20053;-58
2022/12/21 05:49:31;;;;;;;56.45;18.48;;;;;;;;;;6251264;28;20187;-58
2022/12/21 05:52:31;;;;;;;54.22;18.52;;;;;;;;;;6247250;28;20045;-56
2022/12/21 05:55:32;;;;;;;56.42;19.02;;;;;;;;;;6247060;28;20513;-54
2022/12/21 05:58:32;;;;;;;54.95;17.45;;;;;;;;;;6261335;28;20051;-65
2022/12/21 06:01:33;;;;;;;61.33;22.08;;;;;;;;;;6264972;28;20041;-68
2022/12/21 06:04:33;;;;;;;59.78;19.63;;;;;;;;;;6265640;28;20037;-59
2022/12/21 06:07:34;;;;;;;51.42;18.88;;;;;;;;;;6267080;28;20049;-65
2022/12/21 06:10:37;;;;;;;55.78;17.70;;;;;;;;;;6266756;28;20041;-55
2022/12/21 06:13:38;;;;;;;57.45;19.33;;;;;;;;;;6264994;28;20136;-58
2022/12/21 06:16:39;;;;;;;60.53;18.20;;;;;;;;;;6264937;28;20055;-51
2022/12/21 06:19:39;;;;;;;57.67;20.50;;;;;;;;;;6248104;28;20048;-56
2022/12/21 06:22:40;;;;;;;60.40;18.15;;;;;;;;;;6247126;28;20049;-56
2022/12/21 06:25:41;;;;;;;55.97;19.50;;;;;;;;;;6245845;28;20057;-57
2022/12/21 06:28:42;;;;;;;60.70;19.55;;;;;;;;;;6248015;28;20124;-56
2022/12/21 06:31:42;;;;;;;63.80;21.40;;;;;;;;;;6244657;28;20053;-56
2022/12/21 06:34:43;;;;;;;64.15;20.20;;;;;;;;;;6245218;28;20151;-57
2022/12/21 06:37:43;;;;;;;65.18;21.08;;;;;;;;;;6243356;28;20045;-55
2022/12/21 06:40:44;;;;;;;61.05;19.13;;;;;;;;;;6245814;28;20562;-54
2022/12/21 06:43:46;;;;;;;63.35;20.52;;;;;;;;;;6254657;28;20091;-58
2022/12/21 06:46:46;;;;;;;61.70;19.58;;;;;;;;;;6264618;28;20049;-61
2022/12/21 06:49:47;;;;;;;59.08;18.65;;;;;;;;;;6265132;28;20135;-56
2022/12/21 06:52:48;;;;;;;66.88;20.55;;;;;;;;;;6264449;28;20487;-57
2022/12/21 06:55:48;;;;;;;82.65;25.30;;;;;;;;;;6265506;28;20122;-57
2022/12/21 06:58:52;;;;;;;63.45;21.73;;;;;;;;;;6265313;28;20171;-57
2022/12/21 07:01:52;;;;;;;68.82;24.83;;;;;;;;;;6264193;28;20135;-57
2022/12/21 07:04:53;;;;;;;59.70;20.92;;;;;;;;;;6264925;28;20049;-56
2022/12/21 07:07:54;;;;;;;59.35;20.08;;;;;;;;;;6265790;28;20155;-60
2022/12/21 07:11:07;;;;;;;59.47;20.30;;;;;;;;;;6265683;28;20041;-58
2022/12/21 07:14:08;;;;;;;56.85;20.42;;;;;;;;;;6264358;28;20045;-57
2022/12/21 07:17:08;;;;;;;58.13;20.60;;;;;;;;;;6266627;28;20045;-56
2022/12/21 07:20:09;;;;;;;63.33;19.30;;;;;;;;;;6268646;28;20118;-57
2022/12/21 07:23:10;;;;;;;58.78;19.13;;;;;;;;;;6269676;28;20456;-57
2022/12/21 07:26:19;;;;;;;59.28;19.95;;;;;;;;;;6270811;28;20454;-58
2022/12/21 07:29:20;;;;;;;63.88;19.10;;;;;;;;;;6268435;28;20045;-55
2022/12/21 07:32:20;;;;;;;68.25;21.17;;;;;;;;;;6270499;28;20554;-58
2022/12/21 07:35:22;;;;;;;63.28;21.02;;;;;;;;;;6270024;28;20049;-58
2022/12/21 07:38:23;;;;;;;56.70;18.85;;;;;;;;;;6270885;28;20055;-63
2022/12/21 07:41:23;;;;;;;59.45;20.48;;;;;;;;;;6271010;28;20049;-57
2022/12/21 07:44:24;;;;;;;63.80;20.08;;;;;;;;;;6269444;28;20047;-55
2022/12/21 07:47:24;;;;;;;62.33;21.50;;;;;;;;;;6270762;28;20442;-58
2022/12/21 07:50:25;;;;;;;62.78;19.17;;;;;;;;;;6269754;28;20057;-55
2022/12/21 07:53:25;;;;;;;60.10;19.98;;;;;;;;;;6269299;28;20047;-57
2022/12/21 07:56:26;;;;;;;67.47;22.40;;;;;;;;;;6270175;28;20103;-52
2022/12/21 07:59:26;;;;;;;60.67;20.48;;;;;;;;;;6270287;28;20361;-57
2022/12/21 08:02:27;;;;;;;65.22;22.15;;;;;;;;;;6269197;28;20053;-58
2022/12/21 08:05:28;;;;;;;77.25;23.45;;;;;;;;;;6270061;28;20052;-58
2022/12/21 08:08:28;;;;;;;72.88;22.48;;;;;;;;;;6269822;28;20045;-58
2022/12/21 08:11:29;;;;;;;76.70;23.50;;;;;;;;;;6269398;28;20053;-57
2022/12/21 08:14:30;;;;;;;66.50;21.60;;;;;;;;;;6268589;28;20051;-56
2022/12/21 08:17:31;;;;;;;85.38;24.60;;;;;;;;;;6269513;28;20045;-57
2022/12/21 08:20:33;;;;;;;68.93;22.33;;;;;;;;;;6268707;28;20389;-58
2022/12/21 08:23:33;;;;;;;75.60;22.30;;;;;;;;;;6267421;28;20492;-57
2022/12/21 08:26:34;;;;;;;69.15;22.85;;;;;;;;;;6269847;28;20045;-59
2022/12/21 08:29:36;;;;;;;65.78;21.20;;;;;;;;;;6268771;28;20393;-62
2022/12/21 08:32:37;;;;;;;67.35;22.38;;;;;;;;;;6268680;28;20124;-64
2022/12/21 08:35:37;;;;;;;66.38;22.10;;;;;;;;;;6257933;28;20049;-57
2022/12/21 08:38:38;;;;;;;75.80;22.58;;;;;;;;;;6249288;28;20530;-57
2022/12/21 08:41:39;;;;;;;68.75;22.20;;;;;;;;;;6244085;28;20052;-56
2022/12/21 08:44:40;;;;;;;67.63;21.98;;;;;;;;;;6245803;28;20897;-58
2022/12/21 08:47:40;;;;;;;71.28;21.13;;;;;;;;;;6244915;28;20096;-56
2022/12/21 08:50:41;;;;;;;73.28;21.92;;;;;;;;;;6251937;28;20045;-57
2022/12/21 08:53:41;;;;;;;65.10;21.73;;;;;;;;;;6267222;28;20049;-57
2022/12/21 08:56:42;;;;;;;63.33;23.35;;;;;;;;;;6268843;28;20049;-55
2022/12/21 08:59:43;;;;;;;70.03;23.30;;;;;;;;;;6261376;28;20052;-57
2022/12/21 09:02:43;;;;;;;68.47;21.80;;;;;;;;;;6265845;28;20045;-68
2022/12/21 09:05:45;;;;;;;83.63;25.75;;;;;;;;;;6267691;28;20144;-55
2022/12/21 09:08:46;;;;;;;69.70;23.73;;;;;;;;;;6268006;28;20067;-62
2022/12/21 09:11:47;;;;;;;65.32;20.95;;;;;;;;;;6267488;28;20402;-68
2022/12/21 09:14:48;;;;;;;60.55;20.08;;;;;;;;;;6267752;28;20052;-67
2022/12/21 09:17:49;;;;;;;57.10;21.25;;;;;;;;;;6268247;28;20048;-57
2022/12/21 09:20:49;;;;;;;66.25;21.02;;;;;;;;;;6267896;28;20553;-62
2022/12/21 09:23:51;;;;;;;64.05;20.98;;;;;;;;;;6266800;28;20037;-58
2022/12/21 09:26:52;;;;;;;64.35;20.67;;;;;;;;;;6267810;28;20065;-58
2022/12/21 09:29:52;;;;;;;57.58;19.17;;;;;;;;;;6262621;28;20364;-61
2022/12/21 09:32:53;;;;;;;61.15;21.35;;;;;;;;;;6247530;28;20907;-58
2022/12/21 09:35:54;;;;;;;57.50;18.67;;;;;;;;;;6246199;28;20057;-57
2022/12/21 09:38:55;;;;;;;61.70;21.20;;;;;;;;;;6244223;28;20053;-56
2022/12/21 09:42:31;;;;;;;61.28;20.60;;;;;;;;;;6241821;28;20049;-57
2022/12/21 09:46:02;;;;;;;59.55;20.15;;;;;;;;;;6241785;28;20056;-57
2022/12/21 09:49:26;;;;;;;70.05;22.60;;;;;;;;;;6243887;28;20515;-60
2022/12/21 09:52:36;;;;;;;67.03;21.13;;;;;;;;;;6248786;28;20064;-61
2022/12/21 09:55:44;;;;;;;67.22;21.33;;;;;;;;;;6259286;28;20488;-63
2022/12/21 09:58:50;;;;;;;71.80;23.48;;;;;;;;;;6259273;28;20123;-60
2022/12/21 10:02:03;;;;;;;58.58;20.08;;;;;;;;;;6259037;28;20049;-65
2022/12/21 10:05:18;;;;;;;63.00;20.95;;;;;;;;;;6242912;28;20064;-66
2022/12/21 10:08:37;;;;;;;68.55;21.73;;;;;;;;;;6243781;28;20064;-58
2022/12/21 10:12:09;;;;;;;71.63;23.13;;;;;;;;;;6244015;28;20412;-57
2022/12/21 10:15:22;;;;;;;61.70;21.17;;;;;;;;;;6254485;28;20447;-56
2022/12/21 10:18:56;;;;;;;62.47;20.77;;;;;;;;;;6257738;28;20049;-65
2022/12/21 10:22:24;;;;;;;58.13;18.17;;;;;;;;;;6259293;28;20476;-62
2022/12/21 10:25:37;;;;;;;56.47;19.73;;;;;;;;;;6263024;28;20171;-57
2022/12/21 10:28:52;;;;;;;53.20;18.30;;;;;;;;;;6264027;28;20052;-67
2022/12/21 10:31:54;;;;;;;66.70;22.00;;;;;;;;;;6262842;28;20177;-55
2022/12/21 10:34:56;;;;;;;61.03;20.33;;;;;;;;;;6245982;28;20463;-67
2022/12/21 10:37:58;;;;;;;65.90;26.33;;;;;;;;;;6241156;28;20037;-57
2022/12/21 10:41:02;;;;;;;57.35;19.70;;;;;;;;;;6245192;28;20045;-57
2022/12/21 10:44:03;;;;;;;56.42;19.65;;;;;;;;;;6263587;28;20065;-57
2022/12/21 10:47:15;;;;;;;56.15;18.80;;;;;;;;;;6266475;28;20451;-69
2022/12/21 10:50:17;;;;;;;;;;;;;;;;;;6266484;28;20148;-54
2022/12/21 10:53:24;;;;;;;62.00;19.50;;;;;;;;;;6272130;28;19956;-67
2022/12/21 10:56:25;;;;;;;64.35;22.23;;;;;;;;;;6272156;28;20128;-63
2022/12/21 10:59:29;;;;;;;62.33;23.17;;;;;;;;;;6270944;28;20051;-67
2022/12/21 11:02:36;;;;;;;62.25;23.02;;;;;;;;;;6269578;28;20557;-68
2022/12/21 11:05:39;;;;;;;65.38;21.17;;;;;;;;;;6253101;28;20124;-66
2022/12/21 11:08:50;;;;;;;69.88;24.63;;;;;;;;;;6247540;28;20051;-64
2022/12/21 11:11:53;;;;;;;63.15;23.48;;;;;;;;;;6245871;28;20049;-64
2022/12/21 11:14:55;;;;;;;75.72;29.42;;;;;;;;;;6250267;28;20057;-66
2022/12/21 11:17:55;;;;;;;73.35;25.77;;;;;;;;;;6246363;28;20123;-63
2022/12/21 11:20:56;;;;;;;80.03;32.17;;;;;;;;;;6269599;28;20049;-55
2022/12/21 11:24:10;;;;;;;60.88;21.27;;;;;;;;;;6271084;28;20504;-66
2022/12/21 11:27:10;;;;;;;61.05;21.27;;;;;;;;;;6264653;28;20033;-56
2022/12/21 11:30:20;;;;;;;69.68;23.13;;;;;;;;;;6258828;28;20230;-59
2022/12/21 11:33:21;;;;;;;63.22;21.13;;;;;;;;;;6262936;28;20033;-56
2022/12/21 11:36:22;;;;;;;63.85;21.15;;;;;;;;;;6261078;28;20758;-58
2022/12/21 11:39:24;;;;;;;73.88;25.92;;;;;;;;;;6260771;28;20052;-65
2022/12/21 11:42:26;;;;;;;73.88;24.73;;;;;;;;;;6264864;28;20743;-56
2022/12/21 11:45:54;;;;;;;70.05;27.33;;;;;;;;;;6261774;28;20050;-63
2022/12/21 11:48:58;;;;;;;58.58;20.08;;;;;;;;;;6251701;28;20045;-56
2022/12/21 11:52:12;;;;;;;65.50;24.58;;;;;;;;;;6245439;28;20578;-57
2022/12/21 11:55:40;;;;;;;55.88;18.92;;;;;;;;;;6247256;28;20405;-56
2022/12/21 11:58:59;;;;;;;62.78;20.52;;;;;;;;;;6247892;28;20049;-59
2022/12/21 12:02:18;;;;;;;88.18;26.20;;;;;;;;;;6250542;28;20405;-56
2022/12/21 12:05:30;;;;;;;62.20;23.30;;;;;;;;;;6246777;28;20136;-68
2022/12/21 12:08:41;;;;;;;;;;;;;;;;;;6246286;28;20084;-68
2022/12/21 12:12:08;;;;;;;56.15;18.40;;;;;;;;;;6248274;28;20269;-58
2022/12/21 12:15:29;;;;;;;61.28;20.65;;;;;;;;;;6224622;28;20051;-66
2022/12/21 12:18:38;;;;;;;61.25;22.58;;;;;;;;;;6266275;28;20044;-67
2022/12/21 12:22:08;;;;;;;61.10;21.35;;;;;;;;;;6248761;28;20037;-57
2022/12/21 12:25:24;;;;;;;63.45;21.67;;;;;;;;;;6243253;28;20055;-57
2022/12/21 12:28:41;;;;;;;59.17;21.35;;;;;;;;;;6246515;28;20051;-65
2022/12/21 12:31:59;;;;;;;63.92;21.83;;;;;;;;;;6245093;28;20053;-68
2022/12/21 12:34:59;;;;;;;71.68;24.50;;;;;;;;;;6247528;28;20054;-55
2022/12/21 12:38:09;;;;;;;75.03;24.50;;;;;;;;;;6245375;28;20423;-54
2022/12/21 12:41:25;;;;;;;72.90;25.35;;;;;;;;;;6245102;28;20073;-56
2022/12/21 12:44:45;;;;;;;74.65;25.25;;;;;;;;;;6244428;28;20041;-66
2022/12/21 12:48:07;;;;;;;151.00;56.58;;;;;;;;;;6249048;28;20053;-67
2022/12/21 12:51:21;;;;;;;70.68;25.80;;;;;;;;;;6257381;28;20059;-62
2022/12/21 12:54:56;;;;;;;89.50;35.00;;;;;;;;;;6264259;28;20094;-63
2022/12/21 12:58:10;;;;;;;99.13;39.75;;;;;;;;;;6266590;28;20115;-68
2022/12/21 13:01:38;;;;;;;75.47;26.23;;;;;;;;;;6262317;28;20048;-64
2022/12/21 13:04:54;;;;;;;74.88;28.73;;;;;;;;;;6260630;28;20105;-56
2022/12/21 13:08:11;;;;;;;68.80;23.90;;;;;;;;;;6247825;28;20057;-57
2022/12/21 13:11:33;;;;;;;83.20;31.20;;;;;;;;;;6257992;28;20106;-55
2022/12/21 13:14:46;;;;;;;71.18;25.75;;;;;;;;;;6249729;28;20072;-52
2022/12/21 13:18:02;;;;;;;94.28;36.53;;;;;;;;;;6252453;28;20059;-56
2022/12/21 13:21:05;;;;;;;78.18;25.65;;;;;;;;;;6255996;28;20135;-62
2022/12/21 13:24:12;;;;;;;71.97;24.45;;;;;;;;;;6256143;28;20191;-54
2022/12/21 13:27:38;;;;;;;74.15;28.25;;;;;;;;;;6255803;28;20045;-56
2022/12/21 13:30:40;;;;;;;78.22;25.30;;;;;;;;;;6255963;28;20535;-55
2022/12/21 13:33:49;;;;;;;80.13;25.15;;;;;;;;;;6256582;28;20468;-62
2022/12/21 13:36:50;;;;;;;75.53;23.52;;;;;;;;;;6255096;28;20154;-64
2022/12/21 13:40:06;;;;;;;72.40;25.85;;;;;;;;;;6254844;28;20045;-61
2022/12/21 13:43:14;;;;;;;91.57;31.33;;;;;;;;;;6256435;28;20839;-58
2022/12/21 13:46:15;;;;;;;83.07;27.95;;;;;;;;;;6254375;28;20057;-57
2022/12/21 13:49:22;;;;;;;158.18;60.90;;;;;;;;;;6254196;28;20053;-60
2022/12/21 13:52:55;;;;;;;82.47;31.58;;;;;;;;;;6256606;28;20103;-58
2022/12/21 13:56:07;;;;;;;76.25;25.95;;;;;;;;;;6251373;28;20052;-64
2022/12/21 13:59:36;;;;;;;90.75;26.63;;;;;;;;;;6255663;28;20144;-53
2022/12/21 14:02:56;;;;;;;79.95;26.00;;;;;;;;;;6258257;28;20420;-56
2022/12/21 14:06:25;;;;;;;76.50;25.05;;;;;;;;;;6255273;28;20524;-57
2022/12/21 14:09:28;;;;;;;106.38;35.72;;;;;;;;;;6255841;28;20039;-57
2022/12/21 14:12:46;;;;;;;75.63;25.42;;;;;;;;;;6256134;28;20059;-59
2022/12/21 14:15:58;;;;;;;73.53;23.00;;;;;;;;;;6254748;28;20451;-58
2022/12/21 14:19:01;;;;;;;73.38;23.75;;;;;;;;;;6251564;28;20059;-56
2022/12/21 14:22:02;;;;;;;78.25;24.20;;;;;;;;;;6254290;28;20157;-57
2022/12/21 14:25:10;;;;;;;71.85;25.20;;;;;;;;;;6252896;28;21297;-57
2022/12/21 14:28:30;;;;;;;80.60;26.52;;;;;;;;;;6254090;28;20059;-52
2022/12/21 14:31:31;;;;;;;84.65;27.73;;;;;;;;;;6252499;28;20128;-58
2022/12/21 14:34:51;;;;;;;87.68;30.25;;;;;;;;;;6252734;28;20053;-58
2022/12/21 14:38:10;;;;;;;85.93;29.17;;;;;;;;;;6255404;28;20088;-59
2022/12/21 14:41:10;;;;;;;82.70;26.83;;;;;;;;;;6254559;28;20072;-54
2022/12/21 14:44:14;;;;;;;81.05;28.65;;;;;;;;;;6251114;28;20163;-61
2022/12/21 14:47:15;;;;;;;79.03;25.52;;;;;;;;;;6250170;28;20122;-56
2022/12/21 14:50:18;;;;;;;85.90;28.33;;;;;;;;;;6247662;28;21232;-56
2022/12/21 14:53:19;;;;;;;79.03;25.17;;;;;;;;;;6247264;28;20160;-55
2022/12/21 14:56:20;;;;;;;77.90;26.40;;;;;;;;;;6247356;28;20056;-57
2022/12/21 14:59:21;;;;;;;95.45;38.05;;;;;;;;;;6251558;28;20044;-61
2022/12/21 15:02:46;;;;;;;85.05;28.20;;;;;;;;;;6247117;28;20052;-58
2022/12/21 15:06:02;;;;;;;84.03;28.27;;;;;;;;;;6245973;28;20571;-57
2022/12/21 15:09:25;;;;;;;87.03;30.33;;;;;;;;;;6662218;22;20663;-57
2022/12/21 15:12:38;;;;;;;88.20;28.45;;;;;;;;;;6242245;28;20875;-54
2022/12/21 15:15:38;;;;;;;82.88;26.92;;;;;;;;;;6237376;28;20055;-60
2022/12/21 15:18:40;;;;;;;93.32;29.23;;;;;;;;;;6237892;28;20068;-63
2022/12/21 15:21:43;;;;;;;98.23;33.07;;;;;;;;;;6241005;28;20151;-56
2022/12/21 15:24:57;;;;;;;99.80;34.67;;;;;;;;;;6235340;28;20055;-58
2022/12/21 15:28:13;;;;;;;81.88;26.95;;;;;;;;;;6242440;28;20053;-56
2022/12/21 15:31:32;;;;;;;96.70;31.02;;;;;;;;;;6237207;28;20049;-57
2022/12/21 15:34:39;;;;;;;83.00;27.50;;;;;;;;;;6239530;28;20132;-56
2022/12/21 15:37:42;;;;;;;88.28;28.85;;;;;;;;;;6235254;28;20095;-66
2022/12/21 15:40:50;;;;;;;101.18;34.78;;;;;;;;;;6241739;28;20045;-60
2022/12/21 15:44:12;;;;;;;110.63;39.60;;;;;;;;;;6240485;28;20411;-58
2022/12/21 15:47:29;;;;;;;97.82;30.15;;;;;;;;;;6237874;28;20136;-56
2022/12/21 15:50:39;;;;;;;86.10;29.25;;;;;;;;;;6240692;28;20547;-64
2022/12/21 15:53:40;;;;;;;89.95;28.73;;;;;;;;;;6242862;28;20160;-57
2022/12/21 15:56:52;;;;;;;85.93;30.65;;;;;;;;;;6237617;28;20160;-58
2022/12/21 15:59:53;;;;;;;118.40;44.08;;;;;;;;;;6238541;28;20056;-55
2022/12/21 16:03:03;;;;;;;102.47;35.60;;;;;;;;;;6242823;28;20117;-56
2022/12/21 16:06:10;;;;;;;103.63;35.63;;;;;;;;;;6242790;28;20055;-60
2022/12/21 16:09:13;;;;;;;91.60;31.65;;;;;;;;;;6240982;28;20069;-57
2022/12/21 16:12:41;;;;;;;82.15;30.45;;;;;;;;;;6240881;28;20053;-61
2022/12/21 16:15:43;;;;;;;86.20;29.35;;;;;;;;;;6237669;28;20060;-56
2022/12/21 16:18:44;;;;;;;110.65;41.05;;;;;;;;;;6244772;28;20415;-58
2022/12/21 16:21:45;;;;;;;189.60;61.35;;;;;;;;;;6242196;28;20051;-57
2022/12/21 16:24:52;;;;;;;348.35;116.75;;;;;;;;;;6240396;28;20490;-54
2022/12/21 16:27:55;;;;;;;171.63;56.90;;;;;;;;;;6243949;28;20057;-57
2022/12/21 16:31:03;;;;;;;150.90;48.80;;;;;;;;;;6252085;28;20057;-58
2022/12/21 16:34:12;;;;;;;174.07;52.78;;;;;;;;;;6250445;28;20148;-55
2022/12/21 16:37:18;;;;;;;137.05;44.72;;;;;;;;;;6241458;28;20072;-58
2022/12/21 16:40:24;;;;;;;121.63;40.22;;;;;;;;;;6246993;28;20046;-52
2022/12/21 16:43:25;;;;;;;213.32;61.58;;;;;;;;;;6241682;28;20080;-55
2022/12/21 16:46:49;;;;;;;164.60;46.53;;;;;;;;;;6240403;28;20052;-56
2022/12/21 16:49:50;;;;;;;176.57;53.03;;;;;;;;;;6229414;28;20080;-57
2022/12/21 16:52:51;;;;;;;120.37;37.40;;;;;;;;;;6247611;28;20072;-55
2022/12/21 16:56:17;;;;;;;172.25;52.58;;;;;;;;;;6246685;28;20279;-50
2022/12/21 16:59:24;;;;;;;216.50;63.13;;;;;;;;;;6246103;28;20055;-53
2022/12/21 17:02:29;;;;;;;167.48;48.17;;;;;;;;;;6242649;28;20057;-52
2022/12/21 17:05:36;;;;;;;243.43;70.03;;;;;;;;;;6245310;28;20053;-56
2022/12/21 17:08:45;;;;;;;99.82;32.17;;;;;;;;;;6237377;28;20071;-53
2022/12/21 17:12:30;;;;;;;280.38;84.13;;;;;;;;;;6239412;28;20057;-54
2022/12/21 17:15:42;;;;;;;176.27;54.17;;;;;;;;;;6188771;28;20135;-55
2022/12/21 17:18:47;;;;;;;134.35;44.67;;;;;;;;;;6240752;28;20045;-55
2022/12/21 17:21:59;;;;;;;157.10;54.13;;;;;;;;;;6238578;28;20055;-54
2022/12/21 17:25:11;;;;;;;118.60;39.17;;;;;;;;;;6235178;28;20053;-55
2022/12/21 17:28:15;;;;;;;168.98;48.08;;;;;;;;;;6238987;28;20065;-53
2022/12/21 17:31:17;;;;;;;136.82;45.55;;;;;;;;;;6222509;28;20803;-55
2022/12/21 17:34:26;;;;;;;108.13;33.80;;;;;;;;;;6237854;28;20053;-53
2022/12/21 17:37:26;;;;;;;103.43;32.65;;;;;;;;;;6237553;28;20052;-54
2022/12/21 17:40:27;;;;;;;116.20;36.35;;;;;;;;;;6220774;28;20061;-53
2022/12/21 17:43:28;;;;;;;130.40;44.05;;;;;;;;;;6236193;28;20534;-57
2022/12/21 17:46:28;;;;;;;156.55;47.42;;;;;;;;;;6224281;28;20046;-55
2022/12/21 17:49:29;;;;;;;116.55;36.08;;;;;;;;;;6231176;28;20060;-55
2022/12/21 17:52:29;;;;;;;145.70;42.88;;;;;;;;;;6234105;28;20048;-53
2022/12/21 17:55:30;;;;;;;104.97;33.97;;;;;;;;;;6228740;28;20059;-52
2022/12/21 17:58:31;;;;;;;114.18;34.78;;;;;;;;;;6239933;28;20106;-58
2022/12/21 18:01:33;;;;;;;131.57;42.47;;;;;;;;;;6236733;28;20434;-52
2022/12/21 18:04:34;;;;;;;151.68;47.58;;;;;;;;;;6234233;28;20563;-55
2022/12/21 18:07:37;;;;;;;117.80;41.60;;;;;;;;;;6223252;28;20048;-54
2022/12/21 18:10:38;;;;;;;105.75;34.58;;;;;;;;;;6239379;28;20471;-53
2022/12/21 18:13:39;;;;;;;110.85;40.80;;;;;;;;;;6232432;28;20053;-53
2022/12/21 18:16:42;;;;;;;104.28;33.20;;;;;;;;;;6231524;28;20100;-52
2022/12/21 18:19:44;;;;;;;96.40;32.28;;;;;;;;;;6234579;28;20053;-54
2022/12/21 18:22:45;;;;;;;102.47;32.72;;;;;;;;;;6229284;28;20049;-54